Time;durP1;ratioP1;P1;durP2;ratioP2;P2;SDS_P1;SDS_P2;PMS_P1;PMS_P2;Temp;Humidity;BMP_temperature;BMP_pressure;BME280_temperature;BME280_humidity;BME280_pressure;Samples;Min_cycle;Max_cycle;Signal;HPM_P1;HPM_P2
2022/04/06 00:00:47;;;;;;;27.92;12.18;;;8.90;99.90;;;;;;5095188;27;20081;-76
2022/04/06 00:03:12;;;;;;;29.98;11.63;;;8.90;99.90;;;;;;5061453;28;20062;-76
2022/04/06 00:05:38;;;;;;;29.13;12.13;;;8.80;99.90;;;;;;5103302;27;20061;-76
2022/04/06 00:08:04;;;;;;;27.08;11.25;;;8.90;99.90;;;;;;5115478;27;20486;-76
2022/04/06 00:10:31;;;;;;;30.27;12.23;;;8.90;99.90;;;;;;5095295;28;20043;-75
2022/04/06 00:12:59;;;;;;;25.85;11.18;;;8.90;99.90;;;;;;5078498;27;20056;-75
2022/04/06 00:15:25;;;;;;;32.15;11.48;;;8.90;99.90;;;;;;5095024;28;20099;-76
2022/04/06 00:17:53;;;;;;;20.52;11.90;;;8.90;99.90;;;;;;5088423;27;20130;-76
2022/04/06 00:20:18;;;;;;;27.50;12.00;;;8.90;99.90;;;;;;5096277;28;20059;-76
2022/04/06 00:22:44;;;;;;;34.50;12.25;;;8.90;99.90;;;;;;5094907;28;20051;-77
2022/04/06 00:25:10;;;;;;;26.35;11.45;;;9.00;99.90;;;;;;5094804;28;20050;-76
2022/04/06 00:27:35;;;;;;;29.70;12.32;;;8.90;99.90;;;;;;5081611;27;20043;-76
2022/04/06 00:30:01;;;;;;;24.77;12.45;;;8.90;99.90;;;;;;5114781;27;20406;-76
2022/04/06 00:32:28;;;;;;;30.65;11.65;;;8.90;99.90;;;;;;5115396;27;20039;-75
2022/04/06 00:37:38;;;;;;;31.75;11.95;;;8.90;99.90;;;;;;5095114;28;20395;-75
2022/04/06 00:40:05;;;;;;;30.10;12.57;;;8.90;99.90;;;;;;5055631;27;20047;-76
2022/04/06 00:42:30;;;;;;;26.98;12.68;;;8.90;99.90;;;;;;5078334;28;20044;-75
2022/04/06 00:44:56;;;;;;;30.23;12.18;;;8.80;99.90;;;;;;5096692;27;20146;-76
2022/04/06 00:47:22;;;;;;;27.63;11.88;;;8.90;99.90;;;;;;5084235;28;20071;-76
2022/04/06 00:49:47;;;;;;;29.92;12.75;;;8.90;99.90;;;;;;5078113;28;20517;-75
2022/04/06 00:52:13;;;;;;;29.00;12.48;;;8.90;99.90;;;;;;5106467;28;20047;-76
2022/04/06 00:54:39;;;;;;;31.83;11.27;;;8.90;99.90;;;;;;5061284;28;20404;-75
2022/04/06 00:57:04;;;;;;;24.85;10.70;;;8.90;99.90;;;;;;5080408;28;20046;-76
2022/04/06 00:59:30;;;;;;;27.55;10.57;;;8.90;99.90;;;;;;5115165;28;20039;-76
2022/04/06 01:01:57;;;;;;;26.75;10.77;;;8.90;99.90;;;;;;5077994;28;20059;-76
2022/04/06 01:04:22;;;;;;;24.75;10.68;;;9.00;99.90;;;;;;5087363;28;20088;-76
2022/04/06 01:06:49;;;;;;;25.05;10.85;;;8.90;99.90;;;;;;5095147;28;20039;-76
2022/04/06 01:09:15;;;;;;;24.88;11.20;;;8.90;99.90;;;;;;5114671;28;20118;-76
2022/04/06 01:11:42;;;;;;;21.98;9.80;;;8.90;99.90;;;;;;5114917;27;20448;-76
2022/04/06 01:14:07;;;;;;;21.08;9.68;;;8.90;99.90;;;;;;5080508;28;20043;-76
2022/04/06 01:16:33;;;;;;;22.13;9.38;;;8.90;99.90;;;;;;5110593;28;20467;-76
2022/04/06 01:18:59;;;;;;;23.65;9.68;;;8.90;99.90;;;;;;5085206;27;20051;-76
2022/04/06 01:21:24;;;;;;;19.45;9.02;;;9.00;99.90;;;;;;5132970;27;20038;-76
2022/04/06 01:23:50;;;;;;;18.88;9.13;;;8.90;99.90;;;;;;5081752;28;20142;-76
2022/04/06 01:26:15;;;;;;;19.55;8.77;;;8.90;99.90;;;;;;5129412;27;20119;-77
2022/04/06 01:28:41;;;;;;;21.83;8.90;;;9.00;99.90;;;;;;5136916;27;20047;-76
2022/04/06 01:31:07;;;;;;;21.52;8.77;;;9.00;99.90;;;;;;5101370;27;20039;-76
2022/04/06 01:33:33;;;;;;;19.50;8.57;;;9.00;99.90;;;;;;5064853;28;20112;-76
2022/04/06 01:35:59;;;;;;;20.20;8.43;;;9.00;99.90;;;;;;5088871;28;20036;-76
2022/04/06 01:38:26;;;;;;;26.33;8.85;;;9.00;99.90;;;;;;5117622;27;20380;-76
2022/04/06 01:40:52;;;;;;;20.35;7.65;;;9.00;99.90;;;;;;5066078;27;20040;-77
2022/04/06 01:43:18;;;;;;;26.02;8.13;;;9.00;99.90;;;;;;5080971;28;20089;-76
2022/04/06 01:45:43;;;;;;;22.50;8.48;;;9.00;99.90;;;;;;5069638;28;20445;-76
2022/04/06 01:48:09;;;;;;;20.40;7.38;;;8.90;99.90;;;;;;5084347;27;20043;-76
2022/04/06 01:53:19;;;;;;;17.40;7.47;;;9.00;99.90;;;;;;5073659;27;20047;-76
2022/04/06 01:55:44;;;;;;;19.52;7.13;;;9.00;99.90;;;;;;5084403;27;20043;-76
2022/04/06 01:58:10;;;;;;;16.17;6.82;;;9.00;99.90;;;;;;5109583;27;20043;-76
2022/04/06 02:00:35;;;;;;;16.92;6.60;;;8.90;99.90;;;;;;5096686;27;20111;-76
2022/04/06 02:03:01;;;;;;;14.77;5.80;;;8.90;99.90;;;;;;5113605;27;20048;-76
2022/04/06 02:05:31;;;;;;;17.48;6.15;;;9.00;99.90;;;;;;5100729;27;20078;-76
2022/04/06 02:07:57;;;;;;;15.20;6.22;;;9.00;99.90;;;;;;5081234;28;20044;-75
2022/04/06 02:10:23;;;;;;;18.77;6.90;;;9.00;99.90;;;;;;5077802;27;20053;-76
2022/04/06 02:12:49;;;;;;;15.10;6.35;;;9.00;99.90;;;;;;5097724;27;20122;-76
2022/04/06 02:15:14;;;;;;;14.85;5.55;;;8.90;99.90;;;;;;5063330;28;20099;-75
2022/04/06 02:17:40;;;;;;;12.93;6.15;;;9.00;99.90;;;;;;5085576;28;20050;-75
2022/04/06 02:20:06;;;;;;;16.20;4.95;;;9.00;99.90;;;;;;5072655;28;20402;-75
2022/04/06 02:22:32;;;;;;;15.48;5.05;;;9.00;99.90;;;;;;5095664;27;20145;-76
2022/04/06 02:24:57;;;;;;;11.57;4.47;;;9.00;99.90;;;;;;5082131;27;20035;-75
2022/04/06 02:27:23;;;;;;;11.30;4.43;;;9.00;99.90;;;;;;5117330;27;20550;-75
2022/04/06 02:29:49;;;;;;;11.52;4.40;;;8.90;99.90;;;;;;5109177;27;20422;-75
2022/04/06 02:32:14;;;;;;;9.88;4.07;;;9.00;99.90;;;;;;5096763;28;20447;-75
2022/04/06 02:34:40;;;;;;;9.85;4.20;;;9.00;99.90;;;;;;5093424;28;20393;-75
2022/04/06 02:37:07;;;;;;;13.38;4.10;;;8.90;99.90;;;;;;5135411;27;20133;-75
2022/04/06 02:39:32;;;;;;;12.77;3.83;;;9.00;99.90;;;;;;5117179;27;20111;-76
2022/04/06 02:41:58;;;;;;;13.55;4.20;;;9.00;99.90;;;;;;5080418;28;20126;-75
2022/04/06 02:44:24;;;;;;;8.85;3.95;;;9.00;99.90;;;;;;5110552;27;20047;-75
2022/04/06 02:46:49;;;;;;;11.20;3.60;;;9.00;99.90;;;;;;5097109;27;20036;-75
2022/04/06 02:49:15;;;;;;;11.35;3.47;;;9.00;99.90;;;;;;5079792;28;20039;-75
2022/04/06 02:51:41;;;;;;;10.35;3.55;;;9.00;99.90;;;;;;5088021;27;20066;-76
2022/04/06 02:54:07;;;;;;;8.90;3.50;;;8.90;99.90;;;;;;5117423;27;20402;-76
2022/04/06 02:56:32;;;;;;;8.60;3.10;;;8.90;99.90;;;;;;5116995;27;20043;-76
2022/04/06 02:58:58;;;;;;;11.20;3.35;;;8.90;99.90;;;;;;5082096;27;20417;-76
2022/04/06 03:01:24;;;;;;;12.45;3.40;;;9.00;99.90;;;;;;5079207;28;20395;-76
2022/04/06 03:03:49;;;;;;;10.98;3.40;;;8.90;99.90;;;;;;5114017;27;20084;-76
2022/04/06 03:06:16;;;;;;;13.52;3.33;;;8.90;99.90;;;;;;5134939;27;20047;-76
2022/04/06 03:08:42;;;;;;;9.82;3.40;;;8.90;99.90;;;;;;5100147;27;20044;-76
2022/04/06 03:11:08;;;;;;;10.15;2.90;;;8.90;99.90;;;;;;5100076;27;20090;-76
2022/04/06 03:13:34;;;;;;;10.63;3.40;;;8.90;99.90;;;;;;5096140;28;20491;-76
2022/04/06 03:15:59;;;;;;;14.90;3.90;;;8.90;99.90;;;;;;5087183;28;20058;-76
2022/04/06 03:18:25;;;;;;;12.43;3.78;;;8.90;99.90;;;;;;5116340;27;20050;-76
2022/04/06 03:20:51;;;;;;;10.88;3.63;;;8.80;99.90;;;;;;5080213;27;20040;-76
2022/04/06 03:23:17;;;;;;;13.48;3.75;;;8.90;99.90;;;;;;5079042;28;20093;-76
2022/04/06 03:25:42;;;;;;;12.15;3.88;;;9.00;99.90;;;;;;5084273;28;20044;-76
2022/04/06 03:28:08;;;;;;;16.17;4.43;;;8.90;99.90;;;;;;5071092;28;20047;-76
2022/04/06 03:30:34;;;;;;;16.05;4.28;;;8.90;99.90;;;;;;5091102;28;20043;-76
2022/04/06 03:32:59;;;;;;;14.63;4.68;;;8.90;99.90;;;;;;5049292;27;20091;-76
2022/04/06 03:35:25;;;;;;;14.60;4.15;;;8.90;99.90;;;;;;5078080;28;20404;-75
2022/04/06 03:37:51;;;;;;;16.67;4.38;;;8.80;99.90;;;;;;5072714;27;20046;-75
2022/04/06 03:40:17;;;;;;;16.67;4.55;;;8.90;99.90;;;;;;5078954;28;20040;-75
2022/04/06 03:42:43;;;;;;;15.63;4.72;;;8.90;99.90;;;;;;5091743;28;20405;-74
2022/04/06 03:45:09;;;;;;;11.55;3.83;;;8.90;99.90;;;;;;5082720;27;20043;-75
2022/04/06 03:47:35;;;;;;;13.20;5.03;;;8.80;99.90;;;;;;5078484;28;20043;-75
2022/04/06 03:50:00;;;;;;;13.73;4.53;;;8.80;99.90;;;;;;5086665;28;20073;-74
2022/04/06 03:52:27;;;;;;;20.92;5.68;;;8.90;99.90;;;;;;5081405;27;20055;-74
2022/04/06 03:54:53;;;;;;;16.48;5.57;;;8.80;99.90;;;;;;5096788;27;20043;-74
2022/04/06 03:57:19;;;;;;;16.20;6.10;;;8.80;99.90;;;;;;5116186;27;20043;-74
2022/04/06 03:59:45;;;;;;;15.70;6.35;;;8.90;99.90;;;;;;5081903;27;20046;-75
2022/04/06 04:02:11;;;;;;;17.45;6.45;;;8.80;99.90;;;;;;5094428;28;20128;-75
2022/04/06 04:04:36;;;;;;;19.67;7.28;;;8.80;99.90;;;;;;5107198;28;20055;-74
2022/04/06 04:07:02;;;;;;;20.40;7.18;;;8.80;99.90;;;;;;5133018;27;20047;-75
2022/04/06 04:09:29;;;;;;;21.38;7.50;;;8.90;99.90;;;;;;5133563;27;20087;-75
2022/04/06 04:11:56;;;;;;;20.15;7.82;;;8.80;99.90;;;;;;5107304;27;20040;-74
2022/04/06 04:14:23;;;;;;;22.88;7.68;;;8.90;99.90;;;;;;5095422;28;20043;-75
2022/04/06 04:16:49;;;;;;;24.08;7.40;;;8.90;99.90;;;;;;5110229;27;20051;-75
2022/04/06 04:19:18;;;;;;;21.88;7.32;;;8.90;99.90;;;;;;5095422;28;20047;-75
2022/04/06 04:21:43;;;;;;;18.20;7.55;;;9.00;99.90;;;;;;5071236;28;20423;-77
2022/04/06 04:24:09;;;;;;;20.35;7.93;;;8.90;99.90;;;;;;5090394;27;20042;-75
2022/04/06 04:26:36;;;;;;;21.65;8.00;;;8.90;99.90;;;;;;5108387;27;20047;-75
2022/04/06 04:29:03;;;;;;;20.58;8.18;;;8.90;99.90;;;;;;5085917;27;20122;-76
2022/04/06 04:31:29;;;;;;;18.02;7.43;;;8.90;99.90;;;;;;5094468;28;20051;-76
2022/04/06 04:33:58;;;;;;;24.30;8.00;;;8.90;99.90;;;;;;5095176;28;20047;-75
2022/04/06 04:36:27;;;;;;;17.23;8.10;;;8.90;99.90;;;;;;5098771;27;20110;-76
2022/04/06 04:38:54;;;;;;;18.90;7.00;;;8.80;99.90;;;;;;5079162;27;20465;-76
2022/04/06 04:41:20;;;;;;;22.13;7.20;;;8.80;99.90;;;;;;5094364;28;20048;-75
2022/04/06 04:43:48;;;;;;;22.48;7.40;;;8.90;99.90;;;;;;5083696;28;21039;-76
2022/04/06 04:46:19;;;;;;;20.00;7.25;;;8.80;99.90;;;;;;5079480;27;20043;-75
2022/04/06 04:48:45;;;;;;;17.15;6.63;;;8.80;99.90;;;;;;5077891;28;20426;-75
2022/04/06 04:51:14;;;;;;;21.27;6.90;;;8.80;99.90;;;;;;5096064;28;20042;-75
2022/04/06 04:53:41;;;;;;;23.80;7.03;;;8.70;99.90;;;;;;5092955;28;20047;-75
2022/04/06 04:56:07;;;;;;;19.02;6.18;;;8.70;99.90;;;;;;5098099;28;20077;-75
2022/04/06 04:58:33;;;;;;;17.75;6.90;;;8.70;99.90;;;;;;5097518;28;20039;-75
2022/04/06 05:01:00;;;;;;;16.90;6.65;;;8.70;99.90;;;;;;5096092;28;20065;-74
2022/04/06 05:03:42;;;;;;;18.45;6.07;;;8.70;99.90;;;;;;5074250;28;20086;-75
2022/04/06 05:06:09;;;;;;;15.73;5.65;;;8.70;99.90;;;;;;5097908;28;20055;-75
2022/04/06 05:08:37;;;;;;;21.67;5.60;;;8.70;99.90;;;;;;5091166;28;20090;-76
2022/04/06 05:11:03;;;;;;;19.17;5.70;;;8.70;99.90;;;;;;5113904;28;20097;-76
2022/04/06 05:13:30;;;;;;;18.98;5.57;;;8.70;99.90;;;;;;5112350;28;20468;-77
2022/04/06 05:15:57;;;;;;;19.58;5.70;;;8.70;99.90;;;;;;5090618;28;20564;-76
2022/04/06 05:18:23;;;;;;;15.05;5.45;;;8.70;99.90;;;;;;5089260;28;20040;-75
2022/04/06 05:20:50;;;;;;;17.55;5.53;;;8.60;99.90;;;;;;5042329;28;20645;-75
2022/04/06 05:23:16;;;;;;;18.35;5.30;;;8.70;99.90;;;;;;5060805;28;20035;-75
2022/04/06 05:25:47;;;;;;;18.35;5.65;;;8.60;99.90;;;;;;5076618;28;20051;-75
2022/04/06 05:28:15;;;;;;;13.40;4.57;;;8.60;99.90;;;;;;5077751;28;20040;-75
2022/04/06 05:30:41;;;;;;;18.63;5.28;;;8.60;99.90;;;;;;5061032;28;20036;-75
2022/04/06 05:33:07;;;;;;;13.25;5.32;;;8.60;99.90;;;;;;5051699;28;20486;-75
2022/04/06 05:35:33;;;;;;;19.80;5.05;;;8.60;99.90;;;;;;5080498;28;20151;-76
2022/04/06 05:37:59;;;;;;;15.60;4.80;;;8.60;99.90;;;;;;5080966;28;20050;-76
2022/04/06 05:40:25;;;;;;;11.93;4.50;;;8.60;99.90;;;;;;5080570;28;20104;-75
2022/04/06 05:42:51;;;;;;;14.30;4.13;;;8.60;99.90;;;;;;5097629;28;20382;-75
2022/04/06 05:45:24;;;;;;;15.52;4.32;;;8.60;99.90;;;;;;5066800;28;20049;-75
2022/04/06 05:47:53;;;;;;;16.80;4.15;;;8.60;99.90;;;;;;5082199;28;20100;-75
2022/04/06 05:50:32;;;;;;;18.13;4.53;;;8.50;99.90;;;;;;5069406;28;20470;-75
2022/04/06 05:53:02;;;;;;;18.70;4.70;;;8.60;99.90;;;;;;5098386;28;20051;-76
2022/04/06 05:55:32;;;;;;;18.00;4.90;;;8.50;99.90;;;;;;5099010;28;20043;-75
2022/04/06 05:57:59;;;;;;;25.40;4.78;;;8.50;99.90;;;;;;5080813;27;20196;-75
2022/04/06 06:00:34;;;;;;;18.95;4.68;;;8.50;99.90;;;;;;5104457;27;20127;-75
2022/04/06 06:03:03;;;;;;;16.55;3.85;;;8.40;99.90;;;;;;5086047;27;20039;-75
2022/04/06 06:05:33;;;;;;;15.48;4.20;;;8.50;99.90;;;;;;5084710;27;20133;-76
2022/04/06 06:07:59;;;;;;;18.35;4.50;;;8.50;99.90;;;;;;5083202;27;20055;-75
2022/04/06 06:10:40;;;;;;;14.70;4.57;;;8.60;99.90;;;;;;5104876;27;20463;-75
2022/04/06 06:13:06;;;;;;;16.70;4.40;;;8.40;99.90;;;;;;5100624;27;20505;-76
2022/04/06 06:15:33;;;;;;;12.65;4.25;;;8.50;99.90;;;;;;5100174;27;20062;-75
2022/04/06 06:17:59;;;;;;;14.85;4.00;;;8.50;99.90;;;;;;5100202;27;20043;-76
2022/04/06 06:20:27;;;;;;;12.13;3.45;;;8.50;99.90;;;;;;5101580;27;20039;-75
2022/04/06 06:22:53;;;;;;;12.63;3.63;;;8.50;99.90;;;;;;5067230;27;20055;-75
2022/04/06 06:25:24;;;;;;;14.18;3.47;;;8.40;99.90;;;;;;5082522;27;20043;-75
2022/04/06 06:27:50;;;;;;;19.92;4.35;;;8.40;99.90;;;;;;5082816;27;20057;-75
2022/04/06 06:30:24;;;;;;;13.10;4.05;;;8.50;99.90;;;;;;5117105;27;20050;-75
2022/04/06 06:32:57;;;;;;;10.10;3.40;;;8.50;99.90;;;;;;5069870;27;20143;-75
2022/04/06 06:35:24;;;;;;;14.57;3.28;;;8.40;99.90;;;;;;5084234;27;20108;-75
2022/04/06 06:37:55;;;;;;;10.98;2.90;;;8.40;99.90;;;;;;5101566;27;20047;-75
2022/04/06 06:40:24;;;;;;;13.35;3.15;;;8.40;99.90;;;;;;5084048;27;20122;-76
2022/04/06 06:42:52;;;;;;;14.68;3.20;;;8.40;99.90;;;;;;5082677;27;20386;-75
2022/04/06 06:45:22;;;;;;;9.68;2.95;;;8.40;99.90;;;;;;5085253;27;20082;-75
2022/04/06 06:47:47;;;;;;;13.23;2.80;;;8.40;99.90;;;;;;5099749;27;20043;-75
2022/04/06 06:50:16;;;;;;;10.95;2.90;;;8.40;99.90;;;;;;5067263;27;20046;-74
2022/04/06 06:52:43;;;;;;;8.57;2.85;;;8.50;99.90;;;;;;5083758;27;20134;-74
2022/04/06 06:55:10;;;;;;;10.52;2.40;;;8.50;99.90;;;;;;5100168;27;20047;-76
2022/04/06 06:57:36;;;;;;;13.30;3.05;;;8.50;99.90;;;;;;5082947;27;20248;-76
2022/04/06 07:00:11;;;;;;;8.30;2.53;;;8.50;99.90;;;;;;5100940;27;20081;-76
2022/04/06 07:02:45;;;;;;;12.80;2.75;;;8.50;99.90;;;;;;5086922;27;20046;-76
2022/04/06 07:05:29;;;;;;;8.50;2.88;;;8.50;99.90;;;;;;5101574;27;20035;-76
2022/04/06 07:08:04;;;;;;;10.32;2.35;;;8.40;99.90;;;;;;5101373;27;20126;-76
2022/04/06 07:10:30;;;;;;;7.68;2.85;;;8.40;99.90;;;;;;5117037;27;20432;-76
2022/04/06 07:13:08;;;;;;;12.68;2.80;;;8.50;99.90;;;;;;5085434;27;20043;-76
2022/04/06 07:15:57;;;;;;;15.18;3.67;;;8.40;99.90;;;;;;5085625;27;20043;-76
2022/04/06 07:18:24;;;;;;;10.38;2.88;;;8.40;99.90;;;;;;5087659;27;20474;-76
2022/04/06 07:20:57;;;;;;;12.40;3.08;;;8.30;99.90;;;;;;5065778;27;20471;-76
2022/04/06 07:23:24;;;;;;;10.30;2.78;;;8.50;99.90;;;;;;5116798;27;20164;-76
2022/04/06 07:25:50;;;;;;;12.40;2.83;;;8.60;99.90;;;;;;5082509;27;20146;-75
2022/04/06 07:28:16;;;;;;;12.25;3.17;;;8.40;99.90;;;;;;5066358;27;20137;-75
2022/04/06 07:30:43;;;;;;;14.75;3.17;;;8.40;99.90;;;;;;5066031;27;20050;-75
2022/04/06 07:33:15;;;;;;;14.55;3.03;;;8.40;99.90;;;;;;5063566;27;20057;-75
2022/04/06 07:35:46;;;;;;;15.55;3.03;;;8.50;99.90;;;;;;5100981;27;20047;-75
2022/04/06 07:38:14;;;;;;;19.55;3.70;;;8.50;99.90;;;;;;5099562;27;20374;-75
2022/04/06 07:40:44;;;;;;;15.52;3.72;;;8.50;99.90;;;;;;5099222;27;20051;-75
2022/04/06 07:43:11;;;;;;;13.18;3.25;;;8.50;99.90;;;;;;5097977;27;20467;-75
2022/04/06 07:45:38;;;;;;;15.23;3.00;;;8.50;99.90;;;;;;5065936;27;20049;-75
2022/04/06 07:48:11;;;;;;;17.35;3.60;;;8.50;99.90;;;;;;5100793;27;20547;-75
2022/04/06 07:50:36;;;;;;;16.67;3.17;;;8.50;99.90;;;;;;5082682;27;20129;-75
2022/04/06 07:53:02;;;;;;;11.95;3.38;;;8.50;99.90;;;;;;5078241;28;20232;-76
2022/04/06 07:55:34;;;;;;;16.50;3.42;;;8.50;99.90;;;;;;5081067;28;20047;-75
2022/04/06 07:58:00;;;;;;;16.88;3.22;;;8.50;99.90;;;;;;5095388;28;20061;-76
2022/04/06 08:00:32;;;;;;;16.23;3.60;;;8.50;99.90;;;;;;5096150;28;20059;-76
2022/04/06 08:02:58;;;;;;;16.35;3.63;;;8.50;99.90;;;;;;5096217;28;20031;-75
2022/04/06 08:05:27;;;;;;;17.42;3.70;;;8.50;99.90;;;;;;5062102;28;20050;-75
2022/04/06 08:07:54;;;;;;;15.43;3.22;;;8.50;99.90;;;;;;5112258;28;20058;-75
2022/04/06 08:10:22;;;;;;;17.25;3.80;;;8.60;99.90;;;;;;5095547;28;20031;-75
2022/04/06 08:12:50;;;;;;;15.02;3.65;;;8.60;99.90;;;;;;5078718;28;20040;-75
2022/04/06 08:15:16;;;;;;;14.38;3.22;;;8.60;99.90;;;;;;5111383;28;20069;-75
2022/04/06 08:17:45;;;;;;;12.80;2.95;;;8.60;99.90;;;;;;5078056;28;20052;-75
2022/04/06 08:20:13;;;;;;;12.15;3.30;;;8.70;99.90;;;;;;5061553;28;20130;-75
2022/04/06 08:22:45;;;;;;;15.25;3.50;;;8.70;99.90;;;;;;5095100;28;20480;-75
2022/04/06 08:25:18;;;;;;;12.18;3.17;;;8.70;99.90;;;;;;5061505;28;20052;-75
2022/04/06 08:27:44;;;;;;;10.90;2.83;;;8.70;99.90;;;;;;5096813;28;20100;-75
2022/04/06 08:30:13;;;;;;;12.45;3.10;;;8.80;99.90;;;;;;5111590;28;20491;-75
2022/04/06 08:32:38;;;;;;;10.48;3.28;;;8.70;99.90;;;;;;5077069;28;20087;-75
2022/04/06 08:35:05;;;;;;;11.93;3.25;;;8.80;99.90;;;;;;5078230;28;20464;-75
2022/04/06 08:37:31;;;;;;;13.77;3.15;;;8.70;99.90;;;;;;5078613;28;20035;-75
2022/04/06 08:39:57;;;;;;;14.93;3.20;;;8.70;99.90;;;;;;5094880;28;20105;-75
2022/04/06 08:42:23;;;;;;;14.77;3.47;;;8.80;99.90;;;;;;5111701;28;20036;-75
2022/04/06 08:44:49;;;;;;;14.73;3.35;;;8.70;99.90;;;;;;5095407;28;20051;-75
2022/04/06 08:47:15;;;;;;;14.88;3.00;;;8.80;99.90;;;;;;5077613;28;20486;-75
2022/04/06 08:49:41;;;;;;;12.77;2.75;;;8.80;99.90;;;;;;5061691;28;20078;-75
2022/04/06 08:52:07;;;;;;;12.48;2.92;;;8.80;99.90;;;;;;5063791;27;20047;-75
2022/04/06 08:54:33;;;;;;;10.90;2.80;;;8.80;99.90;;;;;;5081907;28;20050;-75
2022/04/06 08:56:59;;;;;;;11.57;2.70;;;8.90;99.90;;;;;;5098724;28;20039;-74
2022/04/06 08:59:25;;;;;;;13.23;2.85;;;8.90;99.90;;;;;;5114956;28;20045;-74
2022/04/06 09:01:52;;;;;;;14.65;3.15;;;9.00;99.90;;;;;;5081792;28;20431;-74
2022/04/06 09:04:20;;;;;;;11.82;3.15;;;9.00;99.90;;;;;;5114866;28;20079;-75
2022/04/06 09:06:46;;;;;;;10.75;2.55;;;9.00;99.90;;;;;;5098895;28;20043;-74
2022/04/06 09:09:13;;;;;;;10.05;2.53;;;9.10;99.90;;;;;;5097802;28;20491;-74
2022/04/06 09:11:43;;;;;;;16.35;3.15;;;9.20;99.90;;;;;;5081604;28;20039;-74
2022/04/06 09:14:09;;;;;;;11.07;2.60;;;9.30;99.90;;;;;;5064600;28;20047;-75
2022/04/06 09:16:35;;;;;;;10.48;3.00;;;9.20;99.90;;;;;;5081748;28;20043;-74
2022/04/06 09:19:12;;;;;;;12.63;3.08;;;9.40;99.90;;;;;;5081255;28;20539;-75
2022/04/06 09:21:41;;;;;;;13.88;2.53;;;9.50;99.90;;;;;;5098860;28;20039;-74
2022/04/06 09:24:16;;;;;;;10.57;2.78;;;9.60;99.90;;;;;;5066992;28;20046;-74
2022/04/06 09:26:41;;;;;;;11.25;3.00;;;9.60;99.90;;;;;;5081220;28;20039;-75
2022/04/06 09:29:13;;;;;;;11.63;3.25;;;9.70;99.90;;;;;;5081063;28;20087;-75
2022/04/06 09:31:39;;;;;;;13.35;3.15;;;9.70;99.90;;;;;;5081850;28;20057;-75
2022/04/06 09:34:09;;;;;;;10.48;2.88;;;9.80;99.90;;;;;;5099696;27;20250;-75
2022/04/06 09:36:37;;;;;;;11.50;2.70;;;9.70;99.90;;;;;;5102033;27;20078;-75
2022/04/06 09:39:04;;;;;;;14.90;3.53;;;9.80;99.90;;;;;;5102321;27;20386;-75
2022/04/06 09:41:58;;;;;;;10.70;2.67;;;9.80;99.90;;;;;;5089356;27;20095;-75
2022/04/06 09:50:19;;;;;;;11.75;2.95;;;9.90;99.90;;;;;;5118607;27;20184;-74
2022/04/06 09:52:45;;;;;;;13.93;3.17;;;9.90;99.90;;;;;;5101367;27;20096;-75
2022/04/06 09:55:16;;;;;;;15.05;3.47;;;9.90;99.90;;;;;;5101300;27;20047;-75
2022/04/06 09:58:00;;;;;;;;;;;10.00;99.90;;;;;;5085332;27;20043;-74
2022/04/06 10:00:30;;;;;;;12.93;2.55;;;10.00;99.90;;;;;;5117916;27;19915;-74
2022/04/06 10:03:04;;;;;;;14.13;3.53;;;10.00;99.90;;;;;;5102756;27;20084;-75
2022/04/06 10:05:32;;;;;;;13.70;4.00;;;10.10;99.90;;;;;;5083945;27;20039;-74
2022/04/06 10:08:01;;;;;;;12.35;3.25;;;10.00;99.90;;;;;;5068505;27;20047;-74
2022/04/06 10:10:28;;;;;;;12.48;3.25;;;10.00;99.90;;;;;;5084150;27;20039;-75
2022/04/06 10:13:00;;;;;;;15.45;3.30;;;10.00;99.90;;;;;;5117430;27;20051;-75
2022/04/06 10:15:26;;;;;;;12.73;3.35;;;10.00;99.90;;;;;;5134900;27;20062;-74
2022/04/06 10:17:53;;;;;;;10.52;3.38;;;9.90;99.90;;;;;;5084618;27;20043;-75
2022/04/06 10:20:31;;;;;;;14.30;3.42;;;10.00;99.90;;;;;;5100582;27;20039;-75
2022/04/06 10:23:06;;;;;;;14.45;3.38;;;9.90;99.90;;;;;;5101617;27;20062;-75
2022/04/06 10:25:50;;;;;;;16.13;3.90;;;9.90;99.90;;;;;;5100781;27;20051;-76
2022/04/06 10:28:18;;;;;;;13.77;3.55;;;9.90;99.90;;;;;;5117839;27;20047;-76
2022/04/06 10:31:15;;;;;;;17.88;4.00;;;9.90;99.90;;;;;;5101273;27;20066;-75
2022/04/06 10:33:41;;;;;;;17.55;4.15;;;9.90;99.90;;;;;;5136416;27;20035;-75
2022/04/06 10:36:28;;;;;;;15.27;3.63;;;9.90;99.90;;;;;;5135417;27;20058;-75
2022/04/06 10:39:05;;;;;;;14.77;3.92;;;9.90;99.90;;;;;;5118367;27;20559;-75
2022/04/06 10:41:34;;;;;;;16.20;3.67;;;10.00;99.90;;;;;;5117044;27;20172;-77
2022/04/06 10:44:32;;;;;;;;;;;9.90;99.90;;;;;;5072101;27;20058;-76
2022/04/06 10:47:09;;;;;;;13.52;3.58;;;9.90;99.90;;;;;;5118204;27;19966;-75
2022/04/06 10:49:36;;;;;;;16.05;3.88;;;9.90;99.90;;;;;;5083765;27;20050;-76
2022/04/06 10:52:23;;;;;;;17.15;4.45;;;9.90;99.90;;;;;;5067162;27;20042;-76
2022/04/06 10:54:49;;;;;;;17.33;3.92;;;9.90;99.90;;;;;;5100701;27;20382;-75
2022/04/06 10:57:19;;;;;;;20.17;4.63;;;10.00;99.90;;;;;;5084218;27;20134;-76
2022/04/06 11:00:07;;;;;;;20.73;3.88;;;9.90;99.90;;;;;;5100610;27;20130;-76
2022/04/06 11:02:33;;;;;;;18.55;4.10;;;9.90;99.90;;;;;;5101560;27;20051;-75
2022/04/06 11:05:02;;;;;;;16.58;4.47;;;10.00;99.90;;;;;;5067020;27;20050;-74
2022/04/06 11:10:18;;;;;;;14.77;3.83;;;10.10;99.90;;;;;;5134976;27;20134;-75
2022/04/06 11:12:58;;;;;;;16.80;4.13;;;10.10;99.90;;;;;;5115803;27;20126;-74
2022/04/06 11:15:41;;;;;;;17.73;4.05;;;10.20;99.90;;;;;;5083426;27;20047;-75
2022/04/06 11:18:47;;;;;;;16.55;4.03;;;10.10;99.90;;;;;;5100859;27;20042;-75
2022/04/06 11:21:14;;;;;;;14.43;4.40;;;10.20;99.90;;;;;;5100705;27;20054;-74
2022/04/06 11:23:45;;;;;;;16.00;4.50;;;10.30;99.90;;;;;;5100586;27;20485;-75
2022/04/06 11:26:11;;;;;;;15.95;4.15;;;10.40;99.90;;;;;;5082798;27;20470;-74
2022/04/06 11:28:38;;;;;;;15.75;3.88;;;10.60;99.90;;;;;;5082639;27;20045;-75
2022/04/06 11:31:03;;;;;;;19.63;4.10;;;10.70;99.90;;;;;;5083256;27;20386;-75
2022/04/06 11:33:40;;;;;;;15.40;3.55;;;10.80;99.90;;;;;;5082831;27;20054;-75
2022/04/06 11:36:18;;;;;;;15.27;3.60;;;10.90;99.90;;;;;;5083291;27;20050;-75
2022/04/06 11:38:51;;;;;;;14.60;3.90;;;10.90;99.90;;;;;;5082498;27;20058;-75
2022/04/06 11:41:18;;;;;;;17.35;4.30;;;10.90;99.90;;;;;;5099810;27;20493;-76
2022/04/06 11:43:44;;;;;;;17.85;4.10;;;11.00;99.90;;;;;;5099283;27;20145;-76
2022/04/06 11:46:10;;;;;;;13.77;3.70;;;11.20;99.90;;;;;;5098948;27;20079;-76
2022/04/06 11:48:39;;;;;;;16.17;3.78;;;11.10;99.90;;;;;;5082445;27;20118;-76
2022/04/06 11:51:11;;;;;;;16.77;3.60;;;11.20;99.90;;;;;;5117407;27;20156;-76
2022/04/06 11:53:37;;;;;;;17.00;3.90;;;11.30;99.90;;;;;;5098655;27;20130;-76
2022/04/06 11:56:03;;;;;;;18.33;3.60;;;11.30;99.90;;;;;;5099120;28;20046;-77
2022/04/06 11:58:33;;;;;;;13.23;3.10;;;11.30;99.90;;;;;;5081910;27;20050;-76
2022/04/06 12:01:00;;;;;;;16.52;3.60;;;11.30;99.90;;;;;;5099468;27;20049;-76
2022/04/06 12:03:29;;;;;;;12.00;3.40;;;11.30;99.90;;;;;;5116111;27;20047;-76
2022/04/06 12:05:58;;;;;;;13.93;3.45;;;11.30;99.90;;;;;;5134374;27;20096;-77
2022/04/06 12:08:24;;;;;;;13.43;3.63;;;11.40;99.90;;;;;;5134209;27;20047;-76
2022/04/06 12:10:56;;;;;;;20.70;3.72;;;11.40;99.90;;;;;;5098759;27;20417;-76
2022/04/06 12:13:22;;;;;;;17.55;3.70;;;11.50;99.90;;;;;;5099403;27;20070;-77
2022/04/06 12:15:48;;;;;;;16.95;3.63;;;11.60;99.90;;;;;;5082002;27;20043;-76
2022/04/06 12:18:20;;;;;;;12.98;2.92;;;11.60;99.90;;;;;;5068045;27;20051;-77
2022/04/06 12:20:46;;;;;;;17.88;3.22;;;11.60;99.90;;;;;;5081946;27;20380;-78
2022/04/06 12:23:12;;;;;;;13.38;2.85;;;11.50;99.90;;;;;;5065589;27;20121;-78
2022/04/06 12:25:37;;;;;;;13.48;2.97;;;11.50;99.90;;;;;;5098421;27;20431;-77
2022/04/06 12:28:38;;;;;;;14.77;3.80;;;11.50;99.90;;;;;;5115779;27;20031;-78
2022/04/06 12:31:08;;;;;;;13.50;3.28;;;11.50;99.90;;;;;;5101490;27;20039;-78
2022/04/06 12:33:51;;;;;;;14.00;2.72;;;11.50;99.90;;;;;;5098971;27;20131;-78
2022/04/06 12:36:27;;;;;;;11.02;2.80;;;11.60;99.90;;;;;;5115737;27;20057;-77
2022/04/06 12:39:01;;;;;;;13.23;2.85;;;11.70;99.90;;;;;;5098893;27;20247;-77
2022/04/06 12:41:29;;;;;;;14.13;3.00;;;11.70;99.90;;;;;;5098858;28;20035;-77
2022/04/06 12:43:55;;;;;;;14.68;2.97;;;11.80;99.90;;;;;;5098403;27;20046;-77
2022/04/06 12:46:40;;;;;;;10.23;2.60;;;11.90;99.90;;;;;;5115804;28;20050;-77
2022/04/06 12:49:29;;;;;;;9.57;2.70;;;11.90;99.90;;;;;;5098845;27;20054;-77
2022/04/06 12:52:09;;;;;;;14.35;2.92;;;12.00;99.90;;;;;;5098233;27;20066;-76
2022/04/06 12:54:40;;;;;;;13.00;3.10;;;12.00;99.90;;;;;;5097414;28;20143;-77
2022/04/06 12:57:20;;;;;;;12.07;2.47;;;12.00;99.90;;;;;;5081929;28;20039;-76
2022/04/06 12:59:53;;;;;;;14.90;3.00;;;12.00;99.90;;;;;;5081341;28;20049;-79
2022/04/06 13:02:28;;;;;;;10.48;2.65;;;12.00;99.90;;;;;;5081776;28;20039;-80
2022/04/06 13:04:56;;;;;;;10.30;2.63;;;12.10;99.90;;;;;;5098301;28;20082;-79
2022/04/06 13:07:22;;;;;;;9.93;2.35;;;12.20;99.90;;;;;;5098605;27;20035;-76